sensor_id;sensor_type;location;lat;lon;timestamp;pressure;altitude;pressure_sealevel;temperature;humidity
10464;BME280;5279;42.048;24.638;2023-05-07T00:00:44;97730.34;;;14.99;100.00
10464;BME280;5279;42.048;24.638;2023-05-07T00:03:11;97726.19;;;14.97;100.00
10464;BME280;5279;42.048;24.638;2023-05-07T00:05:39;97723.03;;;15.01;100.00
10464;BME280;5279;42.048;24.638;2023-05-07T00:08:07;97724.66;;;15.02;100.00
10464;BME280;5279;42.048;24.638;2023-05-07T00:10:34;97716.34;;;14.97;100.00
10464;BME280;5279;42.048;24.638;2023-05-07T00:13:03;97725.50;;;15.03;100.00
10464;BME280;5279;42.048;24.638;2023-05-07T00:15:31;97725.00;;;14.99;100.00
10464;BME280;5279;42.048;24.638;2023-05-07T00:17:58;97723.16;;;15.08;100.00
10464;BME280;5279;42.048;24.638;2023-05-07T00:20:25;97724.31;;;15.05;100.00
10464;BME280;5279;42.048;24.638;2023-05-07T00:22:53;97729.50;;;14.99;100.00
10464;BME280;5279;42.048;24.638;2023-05-07T00:25:20;97723.69;;;15.03;100.00
10464;BME280;5279;42.048;24.638;2023-05-07T00:27:47;97714.66;;;14.96;100.00
10464;BME280;5279;42.048;24.638;2023-05-07T00:30:16;97717.19;;;14.65;100.00
10464;BME280;5279;42.048;24.638;2023-05-07T00:32:44;97721.34;;;14.84;100.00
10464;BME280;5279;42.048;24.638;2023-05-07T00:35:14;97725.03;;;14.83;100.00
10464;BME280;5279;42.048;24.638;2023-05-07T00:37:41;97725.88;;;14.67;100.00
10464;BME280;5279;42.048;24.638;2023-05-07T00:40:09;97694.88;;;14.58;100.00
10464;BME280;5279;42.048;24.638;2023-05-07T00:42:37;97711.56;;;14.52;100.00
10464;BME280;5279;42.048;24.638;2023-05-07T00:45:06;97717.38;;;14.56;100.00
10464;BME280;5279;42.048;24.638;2023-05-07T00:47:36;97724.72;;;14.46;100.00
10464;BME280;5279;42.048;24.638;2023-05-07T00:50:05;97721.72;;;14.49;100.00
10464;BME280;5279;42.048;24.638;2023-05-07T00:52:33;97728.72;;;14.50;100.00
10464;BME280;5279;42.048;24.638;2023-05-07T00:55:05;97722.38;;;14.51;100.00
10464;BME280;5279;42.048;24.638;2023-05-07T00:57:33;97734.06;;;14.50;100.00
10464;BME280;5279;42.048;24.638;2023-05-07T01:00:02;97729.03;;;14.63;100.00
10464;BME280;5279;42.048;24.638;2023-05-07T01:02:30;97721.06;;;14.71;100.00
10464;BME280;5279;42.048;24.638;2023-05-07T01:05:00;97724.03;;;14.60;100.00
10464;BME280;5279;42.048;24.638;2023-05-07T01:07:29;97744.22;;;14.54;100.00
10464;BME280;5279;42.048;24.638;2023-05-07T01:09:57;97730.03;;;14.38;100.00
10464;BME280;5279;42.048;24.638;2023-05-07T01:12:26;97746.38;;;14.51;100.00
10464;BME280;5279;42.048;24.638;2023-05-07T01:14:54;97725.69;;;14.45;100.00
10464;BME280;5279;42.048;24.638;2023-05-07T01:17:21;97739.72;;;14.47;100.00
10464;BME280;5279;42.048;24.638;2023-05-07T01:19:50;97747.31;;;14.26;100.00
10464;BME280;5279;42.048;24.638;2023-05-07T01:22:28;97738.66;;;14.32;100.00
10464;BME280;5279;42.048;24.638;2023-05-07T01:24:58;97746.16;;;14.28;100.00
10464;BME280;5279;42.048;24.638;2023-05-07T01:27:27;97737.97;;;14.30;100.00
10464;BME280;5279;42.048;24.638;2023-05-07T01:30:03;97759.31;;;14.30;100.00
10464;BME280;5279;42.048;24.638;2023-05-07T01:32:35;97746.31;;;14.18;100.00
10464;BME280;5279;42.048;24.638;2023-05-07T01:35:05;97735.28;;;14.13;100.00
10464;BME280;5279;42.048;24.638;2023-05-07T01:37:36;97761.44;;;14.18;100.00
10464;BME280;5279;42.048;24.638;2023-05-07T01:40:07;97739.63;;;14.14;100.00
10464;BME280;5279;42.048;24.638;2023-05-07T01:42:35;97734.78;;;14.18;100.00
10464;BME280;5279;42.048;24.638;2023-05-07T01:45:03;97740.63;;;14.21;100.00
10464;BME280;5279;42.048;24.638;2023-05-07T01:47:31;97737.66;;;14.24;100.00
10464;BME280;5279;42.048;24.638;2023-05-07T01:50:00;97731.47;;;14.32;100.00
10464;BME280;5279;42.048;24.638;2023-05-07T01:52:28;97725.50;;;14.38;100.00
10464;BME280;5279;42.048;24.638;2023-05-07T01:54:58;97722.38;;;14.43;100.00
10464;BME280;5279;42.048;24.638;2023-05-07T01:57:27;97724.06;;;14.44;100.00
10464;BME280;5279;42.048;24.638;2023-05-07T01:59:56;97718.72;;;14.44;100.00
10464;BME280;5279;42.048;24.638;2023-05-07T02:02:23;97718.72;;;14.44;100.00
10464;BME280;5279;42.048;24.638;2023-05-07T02:04:50;97713.72;;;14.41;100.00
10464;BME280;5279;42.048;24.638;2023-05-07T02:07:19;97720.88;;;14.48;100.00
10464;BME280;5279;42.048;24.638;2023-05-07T02:09:47;97705.69;;;14.33;100.00
10464;BME280;5279;42.048;24.638;2023-05-07T02:12:16;97715.03;;;14.37;100.00
10464;BME280;5279;42.048;24.638;2023-05-07T02:14:43;97714.38;;;14.43;100.00
10464;BME280;5279;42.048;24.638;2023-05-07T02:17:11;97711.72;;;14.43;100.00
10464;BME280;5279;42.048;24.638;2023-05-07T02:19:40;97729.53;;;14.50;100.00
10464;BME280;5279;42.048;24.638;2023-05-07T02:22:10;97717.03;;;14.43;100.00
10464;BME280;5279;42.048;24.638;2023-05-07T02:24:37;97722.66;;;14.23;100.00
10464;BME280;5279;42.048;24.638;2023-05-07T02:27:04;97718.66;;;14.28;100.00
10464;BME280;5279;42.048;24.638;2023-05-07T02:29:33;97716.63;;;14.13;100.00
10464;BME280;5279;42.048;24.638;2023-05-07T02:32:01;97718.63;;;14.11;100.00
10464;BME280;5279;42.048;24.638;2023-05-07T02:34:28;97722.59;;;14.07;100.00
10464;BME280;5279;42.048;24.638;2023-05-07T02:36:56;97716.94;;;14.10;100.00
10464;BME280;5279;42.048;24.638;2023-05-07T02:39:23;97718.63;;;14.03;100.00
10464;BME280;5279;42.048;24.638;2023-05-07T02:41:50;97708.91;;;13.86;100.00
10464;BME280;5279;42.048;24.638;2023-05-07T02:44:16;97720.91;;;13.98;100.00
10464;BME280;5279;42.048;24.638;2023-05-07T02:46:45;97706.22;;;13.86;100.00
10464;BME280;5279;42.048;24.638;2023-05-07T02:49:13;97703.91;;;13.83;100.00
10464;BME280;5279;42.048;24.638;2023-05-07T02:51:41;97700.88;;;13.70;100.00
10464;BME280;5279;42.048;24.638;2023-05-07T02:54:08;97704.19;;;13.64;100.00
10464;BME280;5279;42.048;24.638;2023-05-07T02:56:35;97706.81;;;13.56;100.00
10464;BME280;5279;42.048;24.638;2023-05-07T02:59:02;97702.13;;;13.50;100.00
10464;BME280;5279;42.048;24.638;2023-05-07T03:01:30;97692.31;;;13.50;100.00
10464;BME280;5279;42.048;24.638;2023-05-07T03:03:59;97695.16;;;13.49;100.00
10464;BME280;5279;42.048;24.638;2023-05-07T03:06:27;97690.47;;;13.43;100.00
10464;BME280;5279;42.048;24.638;2023-05-07T03:08:54;97701.13;;;13.51;100.00
10464;BME280;5279;42.048;24.638;2023-05-07T03:11:21;97708.09;;;13.44;100.00
10464;BME280;5279;42.048;24.638;2023-05-07T03:13:48;97714.38;;;13.35;100.00
10464;BME280;5279;42.048;24.638;2023-05-07T03:16:15;97706.38;;;13.35;100.00
10464;BME280;5279;42.048;24.638;2023-05-07T03:18:42;97714.63;;;13.16;100.00
10464;BME280;5279;42.048;24.638;2023-05-07T03:21:12;97716.75;;;13.12;100.00
10464;BME280;5279;42.048;24.638;2023-05-07T03:23:39;97713.56;;;13.08;100.00
10464;BME280;5279;42.048;24.638;2023-05-07T03:26:07;97715.47;;;13.16;100.00
10464;BME280;5279;42.048;24.638;2023-05-07T03:28:34;97716.91;;;13.10;100.00
10464;BME280;5279;42.048;24.638;2023-05-07T03:31:01;97723.41;;;12.90;100.00
10464;BME280;5279;42.048;24.638;2023-05-07T03:33:51;97719.69;;;12.83;100.00
10464;BME280;5279;42.048;24.638;2023-05-07T03:36:20;97728.97;;;12.79;100.00
10464;BME280;5279;42.048;24.638;2023-05-07T03:38:47;97725.09;;;12.74;100.00
10464;BME280;5279;42.048;24.638;2023-05-07T03:41:14;97711.13;;;12.72;100.00
10464;BME280;5279;42.048;24.638;2023-05-07T03:43:41;97727.13;;;12.80;100.00
10464;BME280;5279;42.048;24.638;2023-05-07T03:46:07;97721.66;;;12.81;100.00
10464;BME280;5279;42.048;24.638;2023-05-07T03:48:34;97719.47;;;12.77;100.00
10464;BME280;5279;42.048;24.638;2023-05-07T03:51:01;97725.63;;;12.77;100.00
10464;BME280;5279;42.048;24.638;2023-05-07T03:53:30;97724.47;;;12.80;100.00
10464;BME280;5279;42.048;24.638;2023-05-07T03:55:57;97733.38;;;12.88;100.00
10464;BME280;5279;42.048;24.638;2023-05-07T03:58:25;97734.06;;;12.98;100.00
10464;BME280;5279;42.048;24.638;2023-05-07T04:00:52;97731.81;;;13.03;100.00
10464;BME280;5279;42.048;24.638;2023-05-07T04:03:20;97731.56;;;13.14;100.00
10464;BME280;5279;42.048;24.638;2023-05-07T04:05:47;97725.56;;;13.12;100.00
10464;BME280;5279;42.048;24.638;2023-05-07T04:08:14;97730.94;;;13.21;100.00
10464;BME280;5279;42.048;24.638;2023-05-07T04:10:42;97736.50;;;13.35;100.00
10464;BME280;5279;42.048;24.638;2023-05-07T04:13:09;97723.25;;;13.43;100.00
10464;BME280;5279;42.048;24.638;2023-05-07T04:15:36;97732.09;;;13.52;100.00
10464;BME280;5279;42.048;24.638;2023-05-07T04:18:03;97725.16;;;13.67;100.00
10464;BME280;5279;42.048;24.638;2023-05-07T04:20:29;97723.16;;;13.69;100.00
10464;BME280;5279;42.048;24.638;2023-05-07T04:22:56;97717.84;;;13.77;100.00
10464;BME280;5279;42.048;24.638;2023-05-07T04:25:23;97722.19;;;13.78;100.00
10464;BME280;5279;42.048;24.638;2023-05-07T04:27:53;97719.41;;;13.80;100.00
10464;BME280;5279;42.048;24.638;2023-05-07T04:30:20;97717.91;;;13.85;100.00
10464;BME280;5279;42.048;24.638;2023-05-07T04:32:47;97716.78;;;14.04;100.00
10464;BME280;5279;42.048;24.638;2023-05-07T04:35:14;97714.78;;;14.06;100.00
10464;BME280;5279;42.048;24.638;2023-05-07T04:37:41;97708.63;;;14.13;100.00
10464;BME280;5279;42.048;24.638;2023-05-07T04:40:08;97710.16;;;14.24;100.00
10464;BME280;5279;42.048;24.638;2023-05-07T04:42:35;97709.38;;;14.40;100.00
10464;BME280;5279;42.048;24.638;2023-05-07T04:45:13;97708.03;;;14.60;100.00
10464;BME280;5279;42.048;24.638;2023-05-07T04:47:40;97715.53;;;14.81;100.00
10464;BME280;5279;42.048;24.638;2023-05-07T04:50:08;97718.69;;;15.00;100.00
10464;BME280;5279;42.048;24.638;2023-05-07T04:52:35;97706.13;;;15.17;100.00
10464;BME280;5279;42.048;24.638;2023-05-07T04:55:02;97722.75;;;15.35;100.00
10464;BME280;5279;42.048;24.638;2023-05-07T04:57:29;97730.91;;;15.58;100.00
10464;BME280;5279;42.048;24.638;2023-05-07T04:59:57;97722.84;;;15.66;100.00
10464;BME280;5279;42.048;24.638;2023-05-07T05:02:25;97730.03;;;15.96;100.00
10464;BME280;5279;42.048;24.638;2023-05-07T05:04:52;97724.63;;;16.12;100.00
10464;BME280;5279;42.048;24.638;2023-05-07T05:07:19;97733.25;;;16.22;100.00
10464;BME280;5279;42.048;24.638;2023-05-07T05:09:45;97738.81;;;16.44;100.00
10464;BME280;5279;42.048;24.638;2023-05-07T05:12:12;97734.91;;;16.54;100.00
10464;BME280;5279;42.048;24.638;2023-05-07T05:14:39;97737.25;;;16.72;100.00
10464;BME280;5279;42.048;24.638;2023-05-07T05:17:06;97746.56;;;16.84;100.00
10464;BME280;5279;42.048;24.638;2023-05-07T05:19:34;97731.41;;;16.91;100.00
10464;BME280;5279;42.048;24.638;2023-05-07T05:22:02;97732.53;;;16.97;100.00
10464;BME280;5279;42.048;24.638;2023-05-07T05:24:29;97734.78;;;17.08;100.00
10464;BME280;5279;42.048;24.638;2023-05-07T05:26:56;97736.47;;;17.23;100.00
10464;BME280;5279;42.048;24.638;2023-05-07T05:29:25;97740.06;;;17.30;100.00
10464;BME280;5279;42.048;24.638;2023-05-07T05:31:52;97740.91;;;17.45;100.00
10464;BME280;5279;42.048;24.638;2023-05-07T05:34:19;97748.03;;;17.53;100.00
10464;BME280;5279;42.048;24.638;2023-05-07T05:36:48;97740.78;;;17.62;100.00
10464;BME280;5279;42.048;24.638;2023-05-07T05:39:15;97746.69;;;17.72;98.50
10464;BME280;5279;42.048;24.638;2023-05-07T05:41:43;97743.91;;;17.80;98.73
10464;BME280;5279;42.048;24.638;2023-05-07T05:44:10;97750.72;;;17.97;100.00
10464;BME280;5279;42.048;24.638;2023-05-07T05:46:37;97758.88;;;17.89;99.21
10464;BME280;5279;42.048;24.638;2023-05-07T05:49:03;97761.06;;;18.15;100.00
10464;BME280;5279;42.048;24.638;2023-05-07T05:51:33;97769.16;;;18.21;100.00
10464;BME280;5279;42.048;24.638;2023-05-07T05:54:02;97757.16;;;18.17;100.00
10464;BME280;5279;42.048;24.638;2023-05-07T05:56:30;97767.59;;;18.27;97.25
10464;BME280;5279;42.048;24.638;2023-05-07T05:58:57;97756.41;;;18.23;99.18
10464;BME280;5279;42.048;24.638;2023-05-07T06:01:23;97766.00;;;18.32;92.51
10464;BME280;5279;42.048;24.638;2023-05-07T06:03:50;97765.25;;;18.38;92.55
10464;BME280;5279;42.048;24.638;2023-05-07T06:06:17;97761.72;;;18.52;94.87
10464;BME280;5279;42.048;24.638;2023-05-07T06:08:44;97766.06;;;18.75;92.44
10464;BME280;5279;42.048;24.638;2023-05-07T06:11:12;97768.81;;;18.81;95.70
10464;BME280;5279;42.048;24.638;2023-05-07T06:13:39;97772.69;;;18.79;92.19
10464;BME280;5279;42.048;24.638;2023-05-07T06:16:06;97771.94;;;18.85;85.71
10464;BME280;5279;42.048;24.638;2023-05-07T06:18:34;97765.53;;;19.07;86.92
10464;BME280;5279;42.048;24.638;2023-05-07T06:21:01;97762.28;;;19.12;85.23
10464;BME280;5279;42.048;24.638;2023-05-07T06:23:28;97756.94;;;19.18;82.95
10464;BME280;5279;42.048;24.638;2023-05-07T06:25:55;97761.41;;;19.32;85.30
10464;BME280;5279;42.048;24.638;2023-05-07T06:28:24;97775.78;;;19.46;81.43
10464;BME280;5279;42.048;24.638;2023-05-07T06:30:50;97771.72;;;19.56;82.34
10464;BME280;5279;42.048;24.638;2023-05-07T06:33:17;97758.44;;;19.48;80.29
10464;BME280;5279;42.048;24.638;2023-05-07T06:36:04;97769.34;;;19.75;81.06
10464;BME280;5279;42.048;24.638;2023-05-07T06:38:31;97780.19;;;19.94;80.48
10464;BME280;5279;42.048;24.638;2023-05-07T06:40:58;97772.31;;;19.86;79.05
10464;BME280;5279;42.048;24.638;2023-05-07T06:43:26;97770.28;;;19.95;79.48
10464;BME280;5279;42.048;24.638;2023-05-07T06:45:53;97769.56;;;20.14;78.63
10464;BME280;5279;42.048;24.638;2023-05-07T06:48:20;97767.25;;;20.11;77.92
10464;BME280;5279;42.048;24.638;2023-05-07T06:50:47;97770.41;;;20.21;76.41
10464;BME280;5279;42.048;24.638;2023-05-07T06:53:13;97771.66;;;20.25;76.62
10464;BME280;5279;42.048;24.638;2023-05-07T06:55:42;97779.94;;;20.24;72.42
10464;BME280;5279;42.048;24.638;2023-05-07T06:58:09;97769.66;;;20.27;74.65
10464;BME280;5279;42.048;24.638;2023-05-07T07:00:37;97779.16;;;20.30;72.46
10464;BME280;5279;42.048;24.638;2023-05-07T07:03:04;97785.22;;;20.45;75.93
10464;BME280;5279;42.048;24.638;2023-05-07T07:05:31;97778.19;;;20.50;75.09
10464;BME280;5279;42.048;24.638;2023-05-07T07:07:58;97781.34;;;20.73;71.40
10464;BME280;5279;42.048;24.638;2023-05-07T07:10:25;97787.38;;;20.76;70.88
10464;BME280;5279;42.048;24.638;2023-05-07T07:12:52;97775.16;;;20.80;71.55
10464;BME280;5279;42.048;24.638;2023-05-07T07:15:19;97780.56;;;20.99;71.60
10464;BME280;5279;42.048;24.638;2023-05-07T07:17:48;97782.22;;;20.87;70.05
10464;BME280;5279;42.048;24.638;2023-05-07T07:20:15;97792.22;;;21.19;70.07
10464;BME280;5279;42.048;24.638;2023-05-07T07:22:42;97771.06;;;21.23;67.45
10464;BME280;5279;42.048;24.638;2023-05-07T07:25:09;97776.06;;;21.33;68.19
10464;BME280;5279;42.048;24.638;2023-05-07T07:27:38;97783.72;;;21.42;70.27
10464;BME280;5279;42.048;24.638;2023-05-07T07:30:06;97773.97;;;21.41;66.02
10464;BME280;5279;42.048;24.638;2023-05-07T07:32:34;97782.47;;;21.45;66.09
10464;BME280;5279;42.048;24.638;2023-05-07T07:35:02;97783.50;;;21.50;65.41
10464;BME280;5279;42.048;24.638;2023-05-07T07:37:30;97786.84;;;21.39;67.80
10464;BME280;5279;42.048;24.638;2023-05-07T07:39:57;97793.03;;;21.59;66.32
10464;BME280;5279;42.048;24.638;2023-05-07T07:42:23;97790.94;;;21.68;64.19
10464;BME280;5279;42.048;24.638;2023-05-07T07:44:50;97790.16;;;21.54;65.60
10464;BME280;5279;42.048;24.638;2023-05-07T07:47:17;97796.09;;;21.83;66.98
10464;BME280;5279;42.048;24.638;2023-05-07T07:49:44;97800.22;;;22.05;65.97
10464;BME280;5279;42.048;24.638;2023-05-07T07:52:12;97799.38;;;22.17;62.43
10464;BME280;5279;42.048;24.638;2023-05-07T07:54:39;97793.81;;;22.06;62.69
10464;BME280;5279;42.048;24.638;2023-05-07T07:57:06;97788.97;;;22.21;61.02
10464;BME280;5279;42.048;24.638;2023-05-07T07:59:33;97798.50;;;22.30;59.03
10464;BME280;5279;42.048;24.638;2023-05-07T08:01:59;97790.44;;;22.17;58.47
10464;BME280;5279;42.048;24.638;2023-05-07T08:04:26;97783.78;;;22.19;59.38
10464;BME280;5279;42.048;24.638;2023-05-07T08:06:53;97789.41;;;22.62;60.18
10464;BME280;5279;42.048;24.638;2023-05-07T08:09:22;97781.25;;;22.75;58.88
10464;BME280;5279;42.048;24.638;2023-05-07T08:11:49;97787.63;;;22.88;58.57
10464;BME280;5279;42.048;24.638;2023-05-07T08:14:16;97787.56;;;23.01;58.34
10464;BME280;5279;42.048;24.638;2023-05-07T08:16:43;97785.00;;;23.06;57.05
10464;BME280;5279;42.048;24.638;2023-05-07T08:19:10;97781.88;;;23.40;57.56
10464;BME280;5279;42.048;24.638;2023-05-07T08:21:38;97763.47;;;23.49;58.13
10464;BME280;5279;42.048;24.638;2023-05-07T08:24:05;97780.09;;;23.52;56.00
10464;BME280;5279;42.048;24.638;2023-05-07T08:26:34;97778.38;;;23.58;56.27
10464;BME280;5279;42.048;24.638;2023-05-07T08:29:01;97776.59;;;23.70;57.18
10464;BME280;5279;42.048;24.638;2023-05-07T08:31:28;97774.56;;;24.02;58.75
10464;BME280;5279;42.048;24.638;2023-05-07T08:33:55;97771.66;;;24.03;54.16
10464;BME280;5279;42.048;24.638;2023-05-07T08:36:22;97760.56;;;23.86;55.81
10464;BME280;5279;42.048;24.638;2023-05-07T08:38:48;97761.25;;;23.39;56.67
10464;BME280;5279;42.048;24.638;2023-05-07T08:41:15;97761.53;;;23.31;59.97
10464;BME280;5279;42.048;24.638;2023-05-07T08:43:47;97761.41;;;23.44;56.79
10464;BME280;5279;42.048;24.638;2023-05-07T08:46:17;97749.41;;;23.40;56.63
10464;BME280;5279;42.048;24.638;2023-05-07T08:48:44;97759.63;;;23.56;57.74
10464;BME280;5279;42.048;24.638;2023-05-07T08:51:13;97748.69;;;23.69;58.49
10464;BME280;5279;42.048;24.638;2023-05-07T08:53:41;97751.53;;;23.74;56.45
10464;BME280;5279;42.048;24.638;2023-05-07T08:56:08;97740.59;;;23.87;58.90
10464;BME280;5279;42.048;24.638;2023-05-07T08:58:36;97744.78;;;24.02;54.73
10464;BME280;5279;42.048;24.638;2023-05-07T09:01:07;97742.41;;;24.30;55.17
10464;BME280;5279;42.048;24.638;2023-05-07T09:03:36;97742.97;;;24.32;54.42
10464;BME280;5279;42.048;24.638;2023-05-07T09:06:03;97742.34;;;24.48;51.40
10464;BME280;5279;42.048;24.638;2023-05-07T09:08:32;97732.63;;;24.59;51.97
10464;BME280;5279;42.048;24.638;2023-05-07T09:10:59;97737.50;;;24.68;49.35
10464;BME280;5279;42.048;24.638;2023-05-07T09:13:27;97738.22;;;24.75;48.71
10464;BME280;5279;42.048;24.638;2023-05-07T09:15:55;97731.94;;;24.93;48.83
10464;BME280;5279;42.048;24.638;2023-05-07T09:18:25;97724.88;;;25.04;48.93
10464;BME280;5279;42.048;24.638;2023-05-07T09:20:51;97727.47;;;24.98;47.04
10464;BME280;5279;42.048;24.638;2023-05-07T09:23:18;97728.34;;;24.81;45.11
10464;BME280;5279;42.048;24.638;2023-05-07T09:25:47;97729.47;;;24.91;46.56
10464;BME280;5279;42.048;24.638;2023-05-07T09:28:14;97725.81;;;24.97;46.13
10464;BME280;5279;42.048;24.638;2023-05-07T09:30:41;97724.44;;;25.07;44.49
10464;BME280;5279;42.048;24.638;2023-05-07T09:33:08;97726.16;;;24.89;42.64
10464;BME280;5279;42.048;24.638;2023-05-07T09:35:37;97713.00;;;25.16;42.98
10464;BME280;5279;42.048;24.638;2023-05-07T09:38:04;97716.19;;;25.25;42.58
10464;BME280;5279;42.048;24.638;2023-05-07T09:40:31;97705.69;;;25.17;41.87
10464;BME280;5279;42.048;24.638;2023-05-07T09:43:08;97709.56;;;25.21;44.65
10464;BME280;5279;42.048;24.638;2023-05-07T09:45:36;97700.28;;;25.51;41.63
10464;BME280;5279;42.048;24.638;2023-05-07T09:48:05;97703.22;;;25.73;42.46
10464;BME280;5279;42.048;24.638;2023-05-07T09:50:38;97706.41;;;25.70;41.69
10464;BME280;5279;42.048;24.638;2023-05-07T09:53:09;97694.50;;;25.71;41.71
10464;BME280;5279;42.048;24.638;2023-05-07T09:55:37;97711.00;;;25.81;40.85
10464;BME280;5279;42.048;24.638;2023-05-07T09:58:06;97701.84;;;25.59;38.55
10464;BME280;5279;42.048;24.638;2023-05-07T10:00:33;97700.28;;;25.63;38.99
10464;BME280;5279;42.048;24.638;2023-05-07T10:03:01;97702.28;;;25.79;38.24
10464;BME280;5279;42.048;24.638;2023-05-07T10:05:29;97696.66;;;26.09;42.11
10464;BME280;5279;42.048;24.638;2023-05-07T10:07:59;97700.75;;;26.12;36.60
10464;BME280;5279;42.048;24.638;2023-05-07T10:10:27;97700.28;;;26.15;35.83
10464;BME280;5279;42.048;24.638;2023-05-07T10:12:54;97694.53;;;25.99;36.66
10464;BME280;5279;42.048;24.638;2023-05-07T10:15:22;97686.75;;;26.03;37.05
10464;BME280;5279;42.048;24.638;2023-05-07T10:17:51;97690.50;;;26.14;37.80
10464;BME280;5279;42.048;24.638;2023-05-07T10:20:20;97690.63;;;26.19;35.45
10464;BME280;5279;42.048;24.638;2023-05-07T10:22:48;97680.03;;;26.17;36.00
10464;BME280;5279;42.048;24.638;2023-05-07T10:25:21;97673.59;;;26.12;36.55
10464;BME280;5279;42.048;24.638;2023-05-07T10:27:50;97681.03;;;26.28;36.12
10464;BME280;5279;42.048;24.638;2023-05-07T10:30:26;97675.25;;;26.52;35.96
10464;BME280;5279;42.048;24.638;2023-05-07T10:33:03;97675.94;;;26.76;36.85
10464;BME280;5279;42.048;24.638;2023-05-07T10:35:38;97667.41;;;26.84;35.91
10464;BME280;5279;42.048;24.638;2023-05-07T10:38:07;97663.41;;;26.75;35.11
10464;BME280;5279;42.048;24.638;2023-05-07T10:40:35;97664.22;;;26.59;36.32
10464;BME280;5279;42.048;24.638;2023-05-07T10:43:03;97661.78;;;26.74;37.23
10464;BME280;5279;42.048;24.638;2023-05-07T10:45:31;97650.75;;;26.97;36.29
10464;BME280;5279;42.048;24.638;2023-05-07T10:48:11;97642.78;;;27.07;36.78
10464;BME280;5279;42.048;24.638;2023-05-07T10:50:39;97654.72;;;27.06;35.41
10464;BME280;5279;42.048;24.638;2023-05-07T10:53:23;97646.16;;;27.14;37.11
10464;BME280;5279;42.048;24.638;2023-05-07T10:58:55;97644.78;;;27.34;35.48
10464;BME280;5279;42.048;24.638;2023-05-07T11:01:50;97644.34;;;27.20;32.66
10464;BME280;5279;42.048;24.638;2023-05-07T11:04:18;97648.41;;;27.39;34.75
10464;BME280;5279;42.048;24.638;2023-05-07T11:10:06;97643.78;;;27.40;33.64
10464;BME280;5279;42.048;24.638;2023-05-07T11:12:53;97643.47;;;27.53;35.69
10464;BME280;5279;42.048;24.638;2023-05-07T11:15:35;97638.91;;;27.58;34.63
10464;BME280;5279;42.048;24.638;2023-05-07T11:18:03;97629.09;;;27.79;35.44
10464;BME280;5279;42.048;24.638;2023-05-07T11:20:52;97628.41;;;27.67;34.20
10464;BME280;5279;42.048;24.638;2023-05-07T11:26:46;97626.00;;;27.71;33.69
10464;BME280;5279;42.048;24.638;2023-05-07T11:29:16;97628.53;;;27.77;35.02
10464;BME280;5279;42.048;24.638;2023-05-07T11:31:43;97621.75;;;27.80;32.81
10464;BME280;5279;42.048;24.638;2023-05-07T11:34:11;97623.47;;;27.64;33.68
10464;BME280;5279;42.048;24.638;2023-05-07T11:36:42;97628.34;;;27.24;33.24
10464;BME280;5279;42.048;24.638;2023-05-07T11:39:30;97622.41;;;27.27;32.40
10464;BME280;5279;42.048;24.638;2023-05-07T11:41:58;97614.47;;;27.08;32.48
10464;BME280;5279;42.048;24.638;2023-05-07T11:44:42;97618.91;;;27.31;34.49
10464;BME280;5279;42.048;24.638;2023-05-07T11:47:10;97624.34;;;27.48;35.65
10464;BME280;5279;42.048;24.638;2023-05-07T11:49:37;97623.66;;;27.57;33.56
10464;BME280;5279;42.048;24.638;2023-05-07T11:52:05;97617.00;;;27.70;32.33
10464;BME280;5279;42.048;24.638;2023-05-07T11:54:35;97620.00;;;27.68;32.55
10464;BME280;5279;42.048;24.638;2023-05-07T11:57:02;97624.63;;;27.68;30.96
10464;BME280;5279;42.048;24.638;2023-05-07T11:59:38;97620.81;;;27.69;31.09
10464;BME280;5279;42.048;24.638;2023-05-07T12:02:06;97616.44;;;27.68;32.33
10464;BME280;5279;42.048;24.638;2023-05-07T12:04:32;97617.00;;;27.70;33.31
10464;BME280;5279;42.048;24.638;2023-05-07T12:06:59;97616.75;;;27.93;32.65
10464;BME280;5279;42.048;24.638;2023-05-07T12:09:26;97611.31;;;27.93;32.89
10464;BME280;5279;42.048;24.638;2023-05-07T12:11:53;97612.63;;;28.12;32.75
10464;BME280;5279;42.048;24.638;2023-05-07T12:14:21;97608.28;;;28.11;30.54
10464;BME280;5279;42.048;24.638;2023-05-07T12:16:49;97603.56;;;28.29;30.70
10464;BME280;5279;42.048;24.638;2023-05-07T12:19:16;97598.00;;;28.45;30.98
10464;BME280;5279;42.048;24.638;2023-05-07T12:21:43;97604.97;;;28.09;29.98
10464;BME280;5279;42.048;24.638;2023-05-07T12:24:10;97597.97;;;28.18;32.19
10464;BME280;5279;42.048;24.638;2023-05-07T12:26:38;97589.56;;;28.20;30.93
10464;BME280;5279;42.048;24.638;2023-05-07T12:29:09;97587.09;;;28.18;31.67
10464;BME280;5279;42.048;24.638;2023-05-07T12:31:36;97580.88;;;28.01;31.34
10464;BME280;5279;42.048;24.638;2023-05-07T12:34:04;97585.75;;;28.21;30.75
10464;BME280;5279;42.048;24.638;2023-05-07T12:36:37;97590.41;;;28.20;31.07
10464;BME280;5279;42.048;24.638;2023-05-07T12:39:04;97584.00;;;28.37;30.85
10464;BME280;5279;42.048;24.638;2023-05-07T12:41:36;97578.66;;;28.47;30.20
10464;BME280;5279;42.048;24.638;2023-05-07T12:44:04;97572.56;;;28.40;29.22
10464;BME280;5279;42.048;24.638;2023-05-07T12:46:31;97572.47;;;28.56;29.38
10464;BME280;5279;42.048;24.638;2023-05-07T12:48:58;97577.63;;;28.26;30.69
10464;BME280;5279;42.048;24.638;2023-05-07T12:51:27;97573.53;;;28.24;31.51
10464;BME280;5279;42.048;24.638;2023-05-07T12:53:56;97571.25;;;28.42;31.68
10464;BME280;5279;42.048;24.638;2023-05-07T12:56:23;97564.69;;;28.11;30.97
10464;BME280;5279;42.048;24.638;2023-05-07T12:58:50;97560.75;;;28.02;31.91
10464;BME280;5279;42.048;24.638;2023-05-07T13:01:17;97551.31;;;27.88;31.45
10464;BME280;5279;42.048;24.638;2023-05-07T13:03:48;97556.59;;;28.00;32.25
10464;BME280;5279;42.048;24.638;2023-05-07T13:06:15;97551.16;;;28.00;31.24
10464;BME280;5279;42.048;24.638;2023-05-07T13:08:43;97549.19;;;27.90;30.31
10464;BME280;5279;42.048;24.638;2023-05-07T13:11:11;97546.97;;;27.87;31.34